createdAt,value
2018-06-28T00:01:58.303Z,19.60
2018-06-28T00:04:26.762Z,19.50
2018-06-28T00:06:55.248Z,19.50
2018-06-28T00:09:23.719Z,19.50
2018-06-28T00:11:52.230Z,19.50
2018-06-28T00:14:20.747Z,19.40
2018-06-28T00:16:49.177Z,19.40
2018-06-28T00:19:17.748Z,19.40
2018-06-28T00:21:47.264Z,19.40
2018-06-28T00:24:15.761Z,19.40
2018-06-28T00:26:44.207Z,19.40
2018-06-28T00:29:12.717Z,19.30
2018-06-28T00:31:41.180Z,19.30
2018-06-28T00:34:10.696Z,19.30
2018-06-28T00:36:39.283Z,19.20
2018-06-28T00:39:09.511Z,19.20
2018-06-28T00:41:38.287Z,19.10
2018-06-28T00:44:06.780Z,19.10
2018-06-28T00:46:35.263Z,19.10
2018-06-28T00:49:03.850Z,19.10
2018-06-28T00:51:32.328Z,19.10
2018-06-28T00:54:00.811Z,19.10
2018-06-28T00:56:29.292Z,19.10
2018-06-28T00:58:57.798Z,19.00
2018-06-28T01:03:54.820Z,18.90
2018-06-28T01:06:24.359Z,18.90
2018-06-28T01:08:52.799Z,18.90
2018-06-28T01:11:22.331Z,18.90
2018-06-28T01:13:50.800Z,18.90
2018-06-28T01:16:19.317Z,18.80
2018-06-28T01:18:48.080Z,18.70
2018-06-28T01:21:16.616Z,18.60
2018-06-28T01:23:45.050Z,18.60
2018-06-28T01:26:13.609Z,18.50
2018-06-28T01:28:42.089Z,18.50
2018-06-28T01:31:10.648Z,18.50
2018-06-28T01:33:39.094Z,18.40
2018-06-28T01:36:07.593Z,18.40
2018-06-28T01:43:43.411Z,18.30
2018-06-28T01:46:11.968Z,18.20
2018-06-28T01:48:40.604Z,18.20
2018-06-28T01:51:09.188Z,18.10
2018-06-28T01:53:37.724Z,18.10
2018-06-28T01:56:06.211Z,18.00
2018-06-28T01:58:34.687Z,18.00
2018-06-28T02:08:27.652Z,17.80
2018-06-28T02:10:56.139Z,17.80
2018-06-28T02:13:24.618Z,17.80
2018-06-28T02:15:53.072Z,17.70
2018-06-28T02:18:21.582Z,17.70
2018-06-28T02:20:50.040Z,17.70
2018-06-28T02:23:18.568Z,17.60
2018-06-28T02:28:15.193Z,17.60
2018-06-28T02:30:43.654Z,17.50
2018-06-28T02:33:12.171Z,17.40
2018-06-28T02:35:40.761Z,17.40
2018-06-28T02:38:09.212Z,17.40
2018-06-28T02:40:37.706Z,17.40
2018-06-28T02:43:06.225Z,17.40
2018-06-28T02:48:02.898Z,17.40
2018-06-28T02:50:31.313Z,17.30
2018-06-28T02:52:59.832Z,17.20
2018-06-28T02:55:28.292Z,17.20
2018-06-28T02:57:56.807Z,17.20
2018-06-28T03:07:49.757Z,17.10
2018-06-28T03:10:18.254Z,17.00
2018-06-28T03:12:46.771Z,17.00
2018-06-28T03:15:15.216Z,17.00
2018-06-28T03:17:43.720Z,17.00
2018-06-28T03:20:12.200Z,16.90
2018-06-28T03:22:40.724Z,16.90
2018-06-28T03:25:09.279Z,16.90
2018-06-28T03:32:34.069Z,16.90
2018-06-28T03:35:03.656Z,16.90
2018-06-28T03:37:32.408Z,16.90
2018-06-28T03:42:29.003Z,16.90
2018-06-28T03:44:57.559Z,17.00
2018-06-28T03:49:54.155Z,16.90
2018-06-28T03:52:23.544Z,16.90
2018-06-28T03:54:52.044Z,16.90
2018-06-28T03:57:20.540Z,16.90
2018-06-28T03:59:49.015Z,16.90
2018-06-28T04:02:17.492Z,16.90
2018-06-28T04:04:45.996Z,16.90
2018-06-28T04:07:14.471Z,16.90
2018-06-28T04:09:42.976Z,16.90
2018-06-28T04:14:39.599Z,17.00
2018-06-28T04:17:08.094Z,17.00
2018-06-28T04:19:36.508Z,17.00
2018-06-28T04:24:33.225Z,17.00
2018-06-28T04:27:01.706Z,17.00
2018-06-28T04:29:30.254Z,17.10
2018-06-28T04:33:02.578Z,17.10
2018-06-28T04:35:31.044Z,17.10
2018-06-28T04:37:59.557Z,17.10
2018-06-28T04:40:28.026Z,17.20
2018-06-28T04:42:56.466Z,17.20
2018-06-28T04:45:24.880Z,17.30
2018-06-28T04:47:53.272Z,17.30
2018-06-28T04:50:21.702Z,17.30
2018-06-28T04:52:50.108Z,17.40
2018-06-28T04:55:18.542Z,17.40
2018-06-28T04:57:46.970Z,17.50
2018-06-28T05:00:15.376Z,17.50
2018-06-28T05:02:43.780Z,17.60
2018-06-28T05:05:12.177Z,17.60
2018-06-28T05:07:40.560Z,17.60
2018-06-28T05:10:08.979Z,17.70
2018-06-28T05:12:37.391Z,17.70
2018-06-28T05:17:33.903Z,17.90
2018-06-28T05:20:02.328Z,17.90
2018-06-28T05:24:59.043Z,18.00
2018-06-28T05:27:27.471Z,18.10
2018-06-28T05:29:55.919Z,18.10
2018-06-28T05:32:24.349Z,18.20
2018-06-28T05:34:52.810Z,18.30
2018-06-28T05:37:21.196Z,18.30
2018-06-28T05:39:49.623Z,18.40
2018-06-28T05:42:18.092Z,18.50
2018-06-28T05:44:46.543Z,18.60
2018-06-28T05:47:15.000Z,18.60
2018-06-28T05:52:11.560Z,18.70
2018-06-28T05:57:08.368Z,18.90
2018-06-28T05:59:36.772Z,18.90
2018-06-28T06:02:05.396Z,19.00
2018-06-28T06:04:33.804Z,19.10
2018-06-28T06:07:02.228Z,19.20
2018-06-28T06:09:30.659Z,19.20
2018-06-28T06:11:59.116Z,19.30
2018-06-28T06:14:27.541Z,19.40
2018-06-28T06:16:56.008Z,19.50
2018-06-28T06:19:24.463Z,19.50
2018-06-28T06:21:52.883Z,19.60
2018-06-28T06:24:21.288Z,19.70
2018-06-28T06:26:49.736Z,19.80
2018-06-28T06:29:18.225Z,19.80
2018-06-28T06:31:46.615Z,19.90
2018-06-28T06:34:15.076Z,20.00
2018-06-28T06:36:43.516Z,20.00
2018-06-28T06:41:40.598Z,20.10
2018-06-28T06:44:08.984Z,20.20
2018-06-28T06:46:37.387Z,20.30
2018-06-28T06:49:05.851Z,20.40
2018-06-28T06:51:34.235Z,20.50
2018-06-28T06:54:02.678Z,20.50
2018-06-28T06:58:59.210Z,20.80
2018-06-28T07:01:27.624Z,20.90
2018-06-28T07:06:24.118Z,21.10
2018-06-28T07:08:52.519Z,21.20
2018-06-28T07:11:20.952Z,21.30
2018-06-28T07:13:49.403Z,21.40
2018-06-28T07:18:45.920Z,21.50
2018-06-28T07:21:14.344Z,21.60
2018-06-28T07:26:10.880Z,21.80
2018-06-28T07:28:39.316Z,21.90
2018-06-28T07:31:07.754Z,22.00
2018-06-28T07:36:04.324Z,22.30
2018-06-28T07:41:00.884Z,22.50
2018-06-28T07:43:29.303Z,22.70
2018-06-28T07:45:57.719Z,22.90
2018-06-28T07:50:54.268Z,23.10
2018-06-28T07:53:22.691Z,23.10
2018-06-28T07:55:51.135Z,23.00
2018-06-28T08:00:47.643Z,23.20
2018-06-28T08:03:16.067Z,23.30
2018-06-28T08:05:44.524Z,23.40
2018-06-28T08:08:12.935Z,23.50
2018-06-28T08:13:09.568Z,23.70
2018-06-28T08:15:38.001Z,23.80
2018-06-28T08:18:06.419Z,23.80
2018-06-28T08:20:34.840Z,23.90
2018-06-28T08:23:03.320Z,23.90
2018-06-28T08:25:31.739Z,24.00
2018-06-28T08:28:00.552Z,24.10
2018-06-28T08:30:29.218Z,24.20
2018-06-28T08:32:57.664Z,24.30
2018-06-28T08:35:26.161Z,24.30
2018-06-28T08:37:54.627Z,24.30
2018-06-28T08:40:23.033Z,24.40
2018-06-28T08:42:51.457Z,24.40
2018-06-28T08:45:19.868Z,24.40
2018-06-28T08:47:48.279Z,24.50
2018-06-28T08:50:16.687Z,24.50
2018-06-28T08:52:45.115Z,24.50
2018-06-28T08:55:13.527Z,24.60
2018-06-28T08:57:41.977Z,24.60
2018-06-28T09:00:10.409Z,24.60
2018-06-28T09:02:38.845Z,24.60
2018-06-28T09:05:07.268Z,24.70
2018-06-28T09:07:36.639Z,24.80
2018-06-28T09:10:05.220Z,24.80
2018-06-28T09:12:33.632Z,24.80
2018-06-28T09:15:02.103Z,24.80
2018-06-28T09:17:30.531Z,24.80
2018-06-28T09:22:27.020Z,25.10
2018-06-28T09:24:55.460Z,25.20
2018-06-28T09:27:23.935Z,25.30
2018-06-28T09:32:20.522Z,25.50
2018-06-28T09:34:48.904Z,25.40
2018-06-28T09:37:17.337Z,25.50
2018-06-28T09:41:10.659Z,25.60
2018-06-28T09:43:39.071Z,25.80
2018-06-28T09:46:07.484Z,25.90
2018-06-28T09:51:04.025Z,25.80
2018-06-28T09:53:32.437Z,26.00
2018-06-28T09:56:00.874Z,26.10
2018-06-28T09:58:29.308Z,26.00
2018-06-28T10:00:57.791Z,26.20
2018-06-28T10:03:26.311Z,26.30
2018-06-28T10:05:54.731Z,26.40
2018-06-28T10:08:23.236Z,26.50
2018-06-28T10:10:51.763Z,26.50
2018-06-28T10:13:20.234Z,26.60
2018-06-28T10:15:48.595Z,26.70
2018-06-28T10:18:16.996Z,26.60
2018-06-28T10:20:45.482Z,26.50
2018-06-28T10:23:13.971Z,26.50
2018-06-28T10:25:42.404Z,26.30
2018-06-28T10:28:10.908Z,26.30
2018-06-28T10:30:39.356Z,26.40
2018-06-28T10:33:07.812Z,26.40
2018-06-28T10:38:04.328Z,26.20
2018-06-28T10:40:32.740Z,26.20
2018-06-28T10:43:01.179Z,26.30
2018-06-28T10:45:29.561Z,26.40
2018-06-28T10:47:57.971Z,26.50
2018-06-28T10:50:26.523Z,26.50
2018-06-28T10:52:54.924Z,26.60
2018-06-28T10:56:47.516Z,26.70
2018-06-28T10:59:15.919Z,26.60
2018-06-28T11:01:44.341Z,26.60
2018-06-28T11:04:12.712Z,26.70
2018-06-28T11:06:41.135Z,26.80
2018-06-28T11:09:10.703Z,26.80
2018-06-28T11:11:39.912Z,27.00
2018-06-28T11:14:08.347Z,26.90
2018-06-28T11:16:36.818Z,27.10
2018-06-28T11:19:05.392Z,27.20
2018-06-28T11:21:33.800Z,27.30
2018-06-28T11:24:02.256Z,27.30
2018-06-28T11:26:30.727Z,27.30
2018-06-28T11:28:59.156Z,27.40
2018-06-28T11:31:27.579Z,27.40
2018-06-28T11:33:56.063Z,27.40
2018-06-28T11:38:52.607Z,27.30
2018-06-28T11:41:20.992Z,27.20
2018-06-28T11:43:49.425Z,27.40
2018-06-28T11:46:17.844Z,27.50
2018-06-28T11:48:46.260Z,27.50
2018-06-28T11:51:14.720Z,27.30
2018-06-28T11:53:43.137Z,27.30
2018-06-28T11:56:11.554Z,27.40
2018-06-28T11:58:39.990Z,27.60
2018-06-28T12:01:08.388Z,27.70
2018-06-28T12:03:36.799Z,27.80
2018-06-28T12:06:05.271Z,27.90
2018-06-28T12:08:33.715Z,28.20
2018-06-28T12:11:02.151Z,28.50
2018-06-28T12:13:30.559Z,28.70
2018-06-28T12:15:59.181Z,28.80
2018-06-28T12:18:27.600Z,28.30
2018-06-28T12:23:24.143Z,28.70
2018-06-28T12:25:52.572Z,28.70
2018-06-28T12:28:21.072Z,28.80
2018-06-28T12:30:49.547Z,29.10
2018-06-28T12:33:17.952Z,28.90
2018-06-28T12:35:46.335Z,28.90
2018-06-28T12:38:17.239Z,29.00
2018-06-28T12:40:45.646Z,29.20
2018-06-28T12:43:14.064Z,29.30
2018-06-28T12:50:40.950Z,29.70
2018-06-28T12:56:43.703Z,30.40
2018-06-28T12:59:14.580Z,30.50
2018-06-28T13:01:43.239Z,30.40
2018-06-28T13:04:11.749Z,30.60
